sensor_id;sensor_type;location;lat;lon;timestamp;P1;durP1;ratioP1;P2;durP2;ratioP2
72065;SDS011;59939;52.516;13.420;2023-04-25T00:00:20;9.57;;;2.33;;
72065;SDS011;59939;52.516;13.420;2023-04-25T00:03:24;7.17;;;2.33;;
72065;SDS011;59939;52.516;13.420;2023-04-25T00:06:30;7.33;;;2.47;;
72065;SDS011;59939;52.516;13.420;2023-04-25T00:09:36;7.63;;;2.67;;
72065;SDS011;59939;52.516;13.420;2023-04-25T00:12:43;9.23;;;2.60;;
72065;SDS011;59939;52.516;13.420;2023-04-25T00:15:47;11.80;;;2.60;;
72065;SDS011;59939;52.516;13.420;2023-04-25T00:18:51;8.40;;;2.63;;
72065;SDS011;59939;52.516;13.420;2023-04-25T00:21:57;8.40;;;2.53;;
72065;SDS011;59939;52.516;13.420;2023-04-25T00:25:02;6.13;;;2.50;;
72065;SDS011;59939;52.516;13.420;2023-04-25T00:28:07;6.40;;;2.50;;
72065;SDS011;59939;52.516;13.420;2023-04-25T00:31:11;9.90;;;2.70;;
72065;SDS011;59939;52.516;13.420;2023-04-25T00:34:18;11.97;;;2.77;;
72065;SDS011;59939;52.516;13.420;2023-04-25T00:37:29;6.00;;;2.37;;
72065;SDS011;59939;52.516;13.420;2023-04-25T00:40:43;9.93;;;3.07;;
72065;SDS011;59939;52.516;13.420;2023-04-25T00:43:54;6.50;;;2.47;;
72065;SDS011;59939;52.516;13.420;2023-04-25T00:47:02;9.20;;;2.73;;
72065;SDS011;59939;52.516;13.420;2023-04-25T00:50:20;6.43;;;2.37;;
72065;SDS011;59939;52.516;13.420;2023-04-25T00:53:25;7.73;;;2.03;;
72065;SDS011;59939;52.516;13.420;2023-04-25T00:56:29;9.83;;;3.57;;
72065;SDS011;59939;52.516;13.420;2023-04-25T00:59:33;8.47;;;2.60;;
72065;SDS011;59939;52.516;13.420;2023-04-25T01:02:52;6.33;;;2.17;;
72065;SDS011;59939;52.516;13.420;2023-04-25T01:05:56;11.23;;;3.70;;
72065;SDS011;59939;52.516;13.420;2023-04-25T01:09:01;15.27;;;3.43;;
72065;SDS011;59939;52.516;13.420;2023-04-25T01:12:06;13.33;;;4.23;;
72065;SDS011;59939;52.516;13.420;2023-04-25T01:15:12;9.27;;;3.33;;
72065;SDS011;59939;52.516;13.420;2023-04-25T01:18:16;10.40;;;2.87;;
72065;SDS011;59939;52.516;13.420;2023-04-25T01:21:19;8.67;;;3.07;;
72065;SDS011;59939;52.516;13.420;2023-04-25T01:24:26;10.27;;;3.03;;
72065;SDS011;59939;52.516;13.420;2023-04-25T01:27:33;8.60;;;2.40;;
72065;SDS011;59939;52.516;13.420;2023-04-25T01:30:38;6.20;;;2.90;;
72065;SDS011;59939;52.516;13.420;2023-04-25T01:33:43;11.07;;;3.67;;
72065;SDS011;59939;52.516;13.420;2023-04-25T01:36:55;9.90;;;2.70;;
72065;SDS011;59939;52.516;13.420;2023-04-25T01:40:02;11.10;;;3.20;;
72065;SDS011;59939;52.516;13.420;2023-04-25T01:43:07;8.17;;;2.83;;
72065;SDS011;59939;52.516;13.420;2023-04-25T01:46:18;8.23;;;3.63;;
72065;SDS011;59939;52.516;13.420;2023-04-25T01:49:22;12.90;;;3.87;;
72065;SDS011;59939;52.516;13.420;2023-04-25T01:52:27;9.90;;;3.50;;
72065;SDS011;59939;52.516;13.420;2023-04-25T01:55:32;8.30;;;3.20;;
72065;SDS011;59939;52.516;13.420;2023-04-25T01:58:46;10.80;;;3.30;;
72065;SDS011;59939;52.516;13.420;2023-04-25T02:01:56;11.90;;;4.07;;
72065;SDS011;59939;52.516;13.420;2023-04-25T02:05:05;9.63;;;3.23;;
72065;SDS011;59939;52.516;13.420;2023-04-25T02:08:15;10.73;;;3.50;;
72065;SDS011;59939;52.516;13.420;2023-04-25T02:11:22;12.00;;;3.17;;
72065;SDS011;59939;52.516;13.420;2023-04-25T02:14:46;7.13;;;3.07;;
72065;SDS011;59939;52.516;13.420;2023-04-25T02:18:01;8.90;;;3.03;;
72065;SDS011;59939;52.516;13.420;2023-04-25T02:21:05;8.40;;;3.47;;
72065;SDS011;59939;52.516;13.420;2023-04-25T02:24:09;12.27;;;3.13;;
72065;SDS011;59939;52.516;13.420;2023-04-25T02:27:12;9.57;;;3.10;;
72065;SDS011;59939;52.516;13.420;2023-04-25T02:30:16;11.13;;;3.87;;
72065;SDS011;59939;52.516;13.420;2023-04-25T02:33:21;10.00;;;3.37;;
72065;SDS011;59939;52.516;13.420;2023-04-25T02:39:59;13.60;;;4.83;;
72065;SDS011;59939;52.516;13.420;2023-04-25T02:43:03;12.20;;;4.30;;
72065;SDS011;59939;52.516;13.420;2023-04-25T02:46:07;13.03;;;3.60;;
72065;SDS011;59939;52.516;13.420;2023-04-25T02:49:12;10.80;;;3.73;;
72065;SDS011;59939;52.516;13.420;2023-04-25T02:52:16;9.37;;;3.50;;
72065;SDS011;59939;52.516;13.420;2023-04-25T02:55:22;11.57;;;4.53;;
72065;SDS011;59939;52.516;13.420;2023-04-25T02:58:26;9.00;;;3.73;;
72065;SDS011;59939;52.516;13.420;2023-04-25T03:01:37;12.80;;;4.30;;
72065;SDS011;59939;52.516;13.420;2023-04-25T03:04:41;19.70;;;4.60;;
72065;SDS011;59939;52.516;13.420;2023-04-25T03:07:52;8.17;;;3.30;;
72065;SDS011;59939;52.516;13.420;2023-04-25T03:10:56;12.80;;;4.83;;
72065;SDS011;59939;52.516;13.420;2023-04-25T03:14:01;21.13;;;4.73;;
72065;SDS011;59939;52.516;13.420;2023-04-25T03:17:05;10.03;;;3.47;;
72065;SDS011;59939;52.516;13.420;2023-04-25T03:20:12;15.27;;;4.67;;
72065;SDS011;59939;52.516;13.420;2023-04-25T03:23:15;13.07;;;5.13;;
72065;SDS011;59939;52.516;13.420;2023-04-25T03:26:19;12.83;;;4.57;;
72065;SDS011;59939;52.516;13.420;2023-04-25T03:29:25;12.27;;;3.77;;
72065;SDS011;59939;52.516;13.420;2023-04-25T03:32:31;9.60;;;3.10;;
72065;SDS011;59939;52.516;13.420;2023-04-25T03:35:36;8.50;;;3.50;;
72065;SDS011;59939;52.516;13.420;2023-04-25T03:38:39;14.97;;;4.77;;
72065;SDS011;59939;52.516;13.420;2023-04-25T03:41:46;8.60;;;3.53;;
72065;SDS011;59939;52.516;13.420;2023-04-25T03:44:54;10.10;;;4.13;;
72065;SDS011;59939;52.516;13.420;2023-04-25T03:47:59;11.50;;;4.10;;
72065;SDS011;59939;52.516;13.420;2023-04-25T03:51:05;15.33;;;5.60;;
72065;SDS011;59939;52.516;13.420;2023-04-25T03:54:13;14.20;;;4.83;;
72065;SDS011;59939;52.516;13.420;2023-04-25T03:57:31;15.37;;;4.97;;
72065;SDS011;59939;52.516;13.420;2023-04-25T04:00:42;12.90;;;4.10;;
72065;SDS011;59939;52.516;13.420;2023-04-25T04:03:47;13.90;;;4.77;;
72065;SDS011;59939;52.516;13.420;2023-04-25T04:06:58;8.80;;;3.00;;
72065;SDS011;59939;52.516;13.420;2023-04-25T04:10:09;11.30;;;4.00;;
72065;SDS011;59939;52.516;13.420;2023-04-25T04:13:15;9.90;;;3.63;;
72065;SDS011;59939;52.516;13.420;2023-04-25T04:16:21;10.30;;;3.47;;
72065;SDS011;59939;52.516;13.420;2023-04-25T04:19:25;18.53;;;4.97;;
72065;SDS011;59939;52.516;13.420;2023-04-25T04:22:39;13.30;;;4.37;;
72065;SDS011;59939;52.516;13.420;2023-04-25T04:25:47;11.83;;;4.70;;
72065;SDS011;59939;52.516;13.420;2023-04-25T04:29:10;13.20;;;3.93;;
72065;SDS011;59939;52.516;13.420;2023-04-25T04:32:17;13.93;;;4.37;;
72065;SDS011;59939;52.516;13.420;2023-04-25T04:35:22;7.53;;;3.13;;
72065;SDS011;59939;52.516;13.420;2023-04-25T04:38:27;18.37;;;3.97;;
72065;SDS011;59939;52.516;13.420;2023-04-25T04:41:34;11.57;;;4.00;;
72065;SDS011;59939;52.516;13.420;2023-04-25T04:45:05;17.60;;;5.03;;
72065;SDS011;59939;52.516;13.420;2023-04-25T04:48:38;10.10;;;3.70;;
72065;SDS011;59939;52.516;13.420;2023-04-25T04:52:06;15.27;;;4.93;;
72065;SDS011;59939;52.516;13.420;2023-04-25T04:55:29;11.17;;;3.20;;
72065;SDS011;59939;52.516;13.420;2023-04-25T04:58:52;11.33;;;3.60;;
72065;SDS011;59939;52.516;13.420;2023-04-25T05:02:11;13.53;;;4.97;;
72065;SDS011;59939;52.516;13.420;2023-04-25T05:05:39;11.07;;;3.43;;
72065;SDS011;59939;52.516;13.420;2023-04-25T05:09:08;15.67;;;5.23;;
72065;SDS011;59939;52.516;13.420;2023-04-25T05:12:40;15.73;;;5.37;;
72065;SDS011;59939;52.516;13.420;2023-04-25T05:16:08;11.70;;;4.07;;
72065;SDS011;59939;52.516;13.420;2023-04-25T05:19:33;19.13;;;5.33;;
72065;SDS011;59939;52.516;13.420;2023-04-25T05:22:59;10.13;;;3.63;;
72065;SDS011;59939;52.516;13.420;2023-04-25T05:26:37;13.50;;;4.20;;
72065;SDS011;59939;52.516;13.420;2023-04-25T05:30:04;10.00;;;2.80;;
72065;SDS011;59939;52.516;13.420;2023-04-25T05:33:16;18.57;;;5.00;;
72065;SDS011;59939;52.516;13.420;2023-04-25T05:36:21;12.60;;;4.67;;
72065;SDS011;59939;52.516;13.420;2023-04-25T05:39:33;9.20;;;3.13;;
72065;SDS011;59939;52.516;13.420;2023-04-25T05:43:12;9.87;;;3.27;;
72065;SDS011;59939;52.516;13.420;2023-04-25T05:46:35;8.37;;;3.47;;
72065;SDS011;59939;52.516;13.420;2023-04-25T05:50:23;15.27;;;5.07;;
72065;SDS011;59939;52.516;13.420;2023-04-25T05:53:51;13.13;;;4.17;;
72065;SDS011;59939;52.516;13.420;2023-04-25T05:56:58;18.60;;;4.90;;
72065;SDS011;59939;52.516;13.420;2023-04-25T06:00:02;14.70;;;4.23;;
72065;SDS011;59939;52.516;13.420;2023-04-25T06:03:18;11.07;;;3.60;;
72065;SDS011;59939;52.516;13.420;2023-04-25T06:06:23;16.20;;;4.77;;
72065;SDS011;59939;52.516;13.420;2023-04-25T06:09:27;10.10;;;3.93;;
72065;SDS011;59939;52.516;13.420;2023-04-25T06:12:31;16.57;;;5.13;;
72065;SDS011;59939;52.516;13.420;2023-04-25T06:15:35;13.90;;;4.70;;
72065;SDS011;59939;52.516;13.420;2023-04-25T06:18:42;15.17;;;6.13;;
72065;SDS011;59939;52.516;13.420;2023-04-25T06:21:46;21.00;;;5.63;;
72065;SDS011;59939;52.516;13.420;2023-04-25T06:24:53;11.63;;;4.50;;
72065;SDS011;59939;52.516;13.420;2023-04-25T06:27:58;14.03;;;4.53;;
72065;SDS011;59939;52.516;13.420;2023-04-25T06:31:02;12.77;;;4.67;;
72065;SDS011;59939;52.516;13.420;2023-04-25T06:34:06;12.67;;;4.30;;
72065;SDS011;59939;52.516;13.420;2023-04-25T06:37:14;18.43;;;5.70;;
72065;SDS011;59939;52.516;13.420;2023-04-25T06:40:19;14.40;;;5.43;;
72065;SDS011;59939;52.516;13.420;2023-04-25T06:43:24;18.33;;;5.30;;
72065;SDS011;59939;52.516;13.420;2023-04-25T06:46:52;15.73;;;6.20;;
72065;SDS011;59939;52.516;13.420;2023-04-25T06:49:57;14.10;;;4.70;;
72065;SDS011;59939;52.516;13.420;2023-04-25T06:53:16;15.83;;;5.60;;
72065;SDS011;59939;52.516;13.420;2023-04-25T06:56:23;16.87;;;5.03;;
72065;SDS011;59939;52.516;13.420;2023-04-25T06:59:37;13.27;;;4.80;;
72065;SDS011;59939;52.516;13.420;2023-04-25T07:02:43;20.43;;;6.63;;
72065;SDS011;59939;52.516;13.420;2023-04-25T07:05:47;12.00;;;3.80;;
72065;SDS011;59939;52.516;13.420;2023-04-25T07:08:51;12.13;;;4.10;;
72065;SDS011;59939;52.516;13.420;2023-04-25T07:11:59;11.73;;;3.83;;
72065;SDS011;59939;52.516;13.420;2023-04-25T07:15:03;11.13;;;4.00;;
72065;SDS011;59939;52.516;13.420;2023-04-25T07:18:09;12.53;;;5.33;;
72065;SDS011;59939;52.516;13.420;2023-04-25T07:21:15;17.63;;;5.53;;
72065;SDS011;59939;52.516;13.420;2023-04-25T07:24:22;14.30;;;5.37;;
72065;SDS011;59939;52.516;13.420;2023-04-25T07:27:26;11.73;;;4.70;;
72065;SDS011;59939;52.516;13.420;2023-04-25T07:30:48;13.17;;;4.73;;
72065;SDS011;59939;52.516;13.420;2023-04-25T07:33:52;13.30;;;5.03;;
72065;SDS011;59939;52.516;13.420;2023-04-25T07:36:57;19.00;;;5.27;;
72065;SDS011;59939;52.516;13.420;2023-04-25T07:40:08;18.67;;;6.10;;
72065;SDS011;59939;52.516;13.420;2023-04-25T07:43:17;19.10;;;4.87;;
72065;SDS011;59939;52.516;13.420;2023-04-25T07:46:29;19.50;;;4.60;;
72065;SDS011;59939;52.516;13.420;2023-04-25T07:49:35;11.90;;;4.10;;
72065;SDS011;59939;52.516;13.420;2023-04-25T07:52:48;21.10;;;4.97;;
72065;SDS011;59939;52.516;13.420;2023-04-25T07:55:59;20.67;;;5.10;;
72065;SDS011;59939;52.516;13.420;2023-04-25T07:59:06;13.57;;;2.93;;
72065;SDS011;59939;52.516;13.420;2023-04-25T08:02:12;17.70;;;5.53;;
72065;SDS011;59939;52.516;13.420;2023-04-25T08:05:18;19.67;;;5.17;;
72065;SDS011;59939;52.516;13.420;2023-04-25T08:08:29;20.57;;;4.90;;
72065;SDS011;59939;52.516;13.420;2023-04-25T08:11:35;31.50;;;4.87;;
72065;SDS011;59939;52.516;13.420;2023-04-25T08:14:40;19.87;;;5.33;;
72065;SDS011;59939;52.516;13.420;2023-04-25T08:17:45;21.83;;;5.40;;
72065;SDS011;59939;52.516;13.420;2023-04-25T08:20:49;14.37;;;3.87;;
72065;SDS011;59939;52.516;13.420;2023-04-25T08:23:53;20.90;;;5.63;;
72065;SDS011;59939;52.516;13.420;2023-04-25T08:27:04;16.37;;;5.30;;
72065;SDS011;59939;52.516;13.420;2023-04-25T08:30:08;16.70;;;4.17;;
72065;SDS011;59939;52.516;13.420;2023-04-25T08:33:13;26.83;;;4.87;;
72065;SDS011;59939;52.516;13.420;2023-04-25T08:36:34;22.13;;;4.83;;
72065;SDS011;59939;52.516;13.420;2023-04-25T08:40:06;22.07;;;4.37;;
72065;SDS011;59939;52.516;13.420;2023-04-25T08:43:29;22.13;;;5.17;;
72065;SDS011;59939;52.516;13.420;2023-04-25T08:46:34;21.43;;;4.70;;
72065;SDS011;59939;52.516;13.420;2023-04-25T08:49:52;30.60;;;4.77;;
72065;SDS011;59939;52.516;13.420;2023-04-25T08:52:58;21.13;;;4.43;;
72065;SDS011;59939;52.516;13.420;2023-04-25T08:56:05;18.33;;;3.70;;
72065;SDS011;59939;52.516;13.420;2023-04-25T08:59:12;16.63;;;3.87;;
72065;SDS011;59939;52.516;13.420;2023-04-25T09:02:16;12.85;;;3.05;;
72065;SDS011;59939;52.516;13.420;2023-04-25T09:05:25;18.40;;;3.90;;
72065;SDS011;59939;52.516;13.420;2023-04-25T09:08:30;18.07;;;3.57;;
72065;SDS011;59939;52.516;13.420;2023-04-25T09:11:36;18.00;;;4.10;;
72065;SDS011;59939;52.516;13.420;2023-04-25T09:14:52;16.60;;;3.63;;
72065;SDS011;59939;52.516;13.420;2023-04-25T09:18:26;12.10;;;3.07;;
72065;SDS011;59939;52.516;13.420;2023-04-25T09:21:35;14.70;;;2.78;;
72065;SDS011;59939;52.516;13.420;2023-04-25T09:24:39;15.17;;;3.10;;
72065;SDS011;59939;52.516;13.420;2023-04-25T09:27:57;18.05;;;3.60;;
72065;SDS011;59939;52.516;13.420;2023-04-25T09:31:04;16.87;;;2.97;;
72065;SDS011;59939;52.516;13.420;2023-04-25T09:34:16;16.43;;;2.70;;
72065;SDS011;59939;52.516;13.420;2023-04-25T09:37:28;18.73;;;4.00;;
72065;SDS011;59939;52.516;13.420;2023-04-25T09:41:08;18.47;;;3.73;;
72065;SDS011;59939;52.516;13.420;2023-04-25T09:44:23;15.10;;;3.45;;
72065;SDS011;59939;52.516;13.420;2023-04-25T09:51:11;16.07;;;3.10;;
72065;SDS011;59939;52.516;13.420;2023-04-25T09:54:26;8.47;;;2.43;;
72065;SDS011;59939;52.516;13.420;2023-04-25T09:57:43;9.40;;;2.80;;
72065;SDS011;59939;52.516;13.420;2023-04-25T10:00:51;11.73;;;3.30;;
72065;SDS011;59939;52.516;13.420;2023-04-25T10:04:07;14.27;;;3.00;;
72065;SDS011;59939;52.516;13.420;2023-04-25T10:07:25;15.03;;;3.40;;
72065;SDS011;59939;52.516;13.420;2023-04-25T10:10:30;13.30;;;2.97;;
72065;SDS011;59939;52.516;13.420;2023-04-25T10:13:39;12.03;;;2.17;;
72065;SDS011;59939;52.516;13.420;2023-04-25T10:16:44;15.03;;;3.30;;
72065;SDS011;59939;52.516;13.420;2023-04-25T10:19:55;11.23;;;2.30;;
72065;SDS011;59939;52.516;13.420;2023-04-25T10:23:11;14.47;;;2.70;;
72065;SDS011;59939;52.516;13.420;2023-04-25T10:26:18;5.80;;;2.10;;
72065;SDS011;59939;52.516;13.420;2023-04-25T10:29:31;10.67;;;2.50;;
72065;SDS011;59939;52.516;13.420;2023-04-25T10:32:38;19.37;;;3.87;;
72065;SDS011;59939;52.516;13.420;2023-04-25T10:35:42;9.87;;;2.83;;
72065;SDS011;59939;52.516;13.420;2023-04-25T10:38:50;6.53;;;2.50;;
72065;SDS011;59939;52.516;13.420;2023-04-25T10:41:58;11.53;;;3.00;;
72065;SDS011;59939;52.516;13.420;2023-04-25T10:45:04;17.23;;;3.20;;
72065;SDS011;59939;52.516;13.420;2023-04-25T10:48:27;10.90;;;3.27;;
72065;SDS011;59939;52.516;13.420;2023-04-25T10:51:35;17.97;;;3.17;;
72065;SDS011;59939;52.516;13.420;2023-04-25T10:54:55;14.27;;;2.70;;
72065;SDS011;59939;52.516;13.420;2023-04-25T10:57:58;9.03;;;2.37;;
72065;SDS011;59939;52.516;13.420;2023-04-25T11:01:04;10.90;;;2.70;;
72065;SDS011;59939;52.516;13.420;2023-04-25T11:04:24;10.67;;;2.80;;
72065;SDS011;59939;52.516;13.420;2023-04-25T11:07:50;20.00;;;3.27;;
72065;SDS011;59939;52.516;13.420;2023-04-25T11:11:02;11.37;;;2.40;;
72065;SDS011;59939;52.516;13.420;2023-04-25T11:14:07;13.17;;;3.23;;
72065;SDS011;59939;52.516;13.420;2023-04-25T11:17:18;10.17;;;2.90;;
72065;SDS011;59939;52.516;13.420;2023-04-25T11:20:24;11.40;;;3.10;;
72065;SDS011;59939;52.516;13.420;2023-04-25T11:23:31;18.30;;;3.00;;
72065;SDS011;59939;52.516;13.420;2023-04-25T11:26:38;14.23;;;3.20;;
72065;SDS011;59939;52.516;13.420;2023-04-25T11:29:41;12.63;;;3.20;;
72065;SDS011;59939;52.516;13.420;2023-04-25T11:32:53;11.53;;;2.63;;
72065;SDS011;59939;52.516;13.420;2023-04-25T11:35:59;9.07;;;2.80;;
72065;SDS011;59939;52.516;13.420;2023-04-25T11:39:04;9.40;;;2.80;;
72065;SDS011;59939;52.516;13.420;2023-04-25T11:42:09;12.00;;;2.83;;
72065;SDS011;59939;52.516;13.420;2023-04-25T11:45:13;11.17;;;2.30;;
72065;SDS011;59939;52.516;13.420;2023-04-25T11:48:18;4.57;;;2.10;;
72065;SDS011;59939;52.516;13.420;2023-04-25T11:51:22;4.13;;;2.10;;
72065;SDS011;59939;52.516;13.420;2023-04-25T11:54:25;10.37;;;2.47;;
72065;SDS011;59939;52.516;13.420;2023-04-25T11:57:30;18.20;;;2.60;;
72065;SDS011;59939;52.516;13.420;2023-04-25T12:00:34;9.67;;;2.60;;
72065;SDS011;59939;52.516;13.420;2023-04-25T12:03:46;7.10;;;2.00;;
72065;SDS011;59939;52.516;13.420;2023-04-25T12:06:57;9.57;;;2.03;;
72065;SDS011;59939;52.516;13.420;2023-04-25T12:10:04;9.03;;;2.50;;
72065;SDS011;59939;52.516;13.420;2023-04-25T12:13:24;12.53;;;1.90;;
72065;SDS011;59939;52.516;13.420;2023-04-25T12:16:28;16.53;;;3.50;;
72065;SDS011;59939;52.516;13.420;2023-04-25T12:19:35;11.13;;;2.43;;
72065;SDS011;59939;52.516;13.420;2023-04-25T12:22:49;13.53;;;3.23;;
72065;SDS011;59939;52.516;13.420;2023-04-25T12:25:55;13.60;;;3.17;;
72065;SDS011;59939;52.516;13.420;2023-04-25T12:29:02;11.80;;;2.60;;
72065;SDS011;59939;52.516;13.420;2023-04-25T12:32:26;10.87;;;2.77;;
72065;SDS011;59939;52.516;13.420;2023-04-25T12:35:30;10.57;;;2.90;;
72065;SDS011;59939;52.516;13.420;2023-04-25T12:38:36;13.03;;;3.10;;
72065;SDS011;59939;52.516;13.420;2023-04-25T12:41:40;7.37;;;2.10;;
72065;SDS011;59939;52.516;13.420;2023-04-25T12:44:52;9.63;;;2.83;;
72065;SDS011;59939;52.516;13.420;2023-04-25T12:48:12;13.23;;;2.90;;
72065;SDS011;59939;52.516;13.420;2023-04-25T12:51:15;8.60;;;2.03;;
72065;SDS011;59939;52.516;13.420;2023-04-25T12:54:19;8.47;;;2.47;;
72065;SDS011;59939;52.516;13.420;2023-04-25T12:57:23;15.70;;;3.20;;
72065;SDS011;59939;52.516;13.420;2023-04-25T13:00:34;10.47;;;2.80;;
72065;SDS011;59939;52.516;13.420;2023-04-25T13:03:39;6.63;;;2.17;;
72065;SDS011;59939;52.516;13.420;2023-04-25T13:06:44;10.17;;;2.40;;
72065;SDS011;59939;52.516;13.420;2023-04-25T13:09:50;7.87;;;1.67;;
72065;SDS011;59939;52.516;13.420;2023-04-25T13:12:56;8.93;;;2.40;;
72065;SDS011;59939;52.516;13.420;2023-04-25T13:16:01;7.17;;;1.90;;
72065;SDS011;59939;52.516;13.420;2023-04-25T13:19:05;7.53;;;2.28;;
72065;SDS011;59939;52.516;13.420;2023-04-25T13:22:12;6.00;;;2.13;;
72065;SDS011;59939;52.516;13.420;2023-04-25T13:25:16;16.13;;;2.90;;
72065;SDS011;59939;52.516;13.420;2023-04-25T13:28:20;7.77;;;1.90;;
72065;SDS011;59939;52.516;13.420;2023-04-25T13:31:26;12.93;;;3.23;;
72065;SDS011;59939;52.516;13.420;2023-04-25T13:34:32;8.03;;;2.20;;
72065;SDS011;59939;52.516;13.420;2023-04-25T13:37:35;7.40;;;2.20;;
72065;SDS011;59939;52.516;13.420;2023-04-25T13:40:39;8.93;;;2.30;;
72065;SDS011;59939;52.516;13.420;2023-04-25T13:43:44;8.17;;;1.90;;
72065;SDS011;59939;52.516;13.420;2023-04-25T13:46:49;8.10;;;2.17;;
72065;SDS011;59939;52.516;13.420;2023-04-25T13:49:52;15.63;;;3.03;;
72065;SDS011;59939;52.516;13.420;2023-04-25T13:52:57;10.53;;;2.77;;
72065;SDS011;59939;52.516;13.420;2023-04-25T13:56:00;7.87;;;2.03;;
72065;SDS011;59939;52.516;13.420;2023-04-25T13:59:04;8.30;;;2.37;;
72065;SDS011;59939;52.516;13.420;2023-04-25T14:02:07;12.93;;;2.70;;
72065;SDS011;59939;52.516;13.420;2023-04-25T14:05:11;11.03;;;2.33;;
72065;SDS011;59939;52.516;13.420;2023-04-25T14:08:16;14.67;;;2.77;;
72065;SDS011;59939;52.516;13.420;2023-04-25T14:11:20;7.50;;;2.17;;
72065;SDS011;59939;52.516;13.420;2023-04-25T14:14:24;13.50;;;2.90;;
72065;SDS011;59939;52.516;13.420;2023-04-25T14:17:28;10.20;;;2.30;;
72065;SDS011;59939;52.516;13.420;2023-04-25T14:20:33;7.23;;;2.33;;
72065;SDS011;59939;52.516;13.420;2023-04-25T14:23:37;12.27;;;3.10;;
72065;SDS011;59939;52.516;13.420;2023-04-25T14:26:44;6.63;;;1.80;;
72065;SDS011;59939;52.516;13.420;2023-04-25T14:29:48;8.63;;;2.70;;
72065;SDS011;59939;52.516;13.420;2023-04-25T14:32:54;8.23;;;2.20;;
72065;SDS011;59939;52.516;13.420;2023-04-25T14:35:59;12.27;;;2.37;;
72065;SDS011;59939;52.516;13.420;2023-04-25T14:39:03;9.23;;;1.60;;
72065;SDS011;59939;52.516;13.420;2023-04-25T14:42:10;7.53;;;1.93;;
72065;SDS011;59939;52.516;13.420;2023-04-25T14:45:15;13.00;;;2.63;;
72065;SDS011;59939;52.516;13.420;2023-04-25T14:48:33;5.93;;;1.37;;
72065;SDS011;59939;52.516;13.420;2023-04-25T14:51:39;11.13;;;1.87;;
72065;SDS011;59939;52.516;13.420;2023-04-25T14:54:44;6.43;;;2.03;;
72065;SDS011;59939;52.516;13.420;2023-04-25T14:57:48;17.70;;;5.83;;
72065;SDS011;59939;52.516;13.420;2023-04-25T15:00:51;14.00;;;4.20;;
72065;SDS011;59939;52.516;13.420;2023-04-25T15:03:56;11.30;;;2.83;;
72065;SDS011;59939;52.516;13.420;2023-04-25T15:07:01;9.13;;;2.13;;
72065;SDS011;59939;52.516;13.420;2023-04-25T15:10:05;7.57;;;1.93;;
72065;SDS011;59939;52.516;13.420;2023-04-25T15:13:09;8.20;;;2.13;;
72065;SDS011;59939;52.516;13.420;2023-04-25T15:16:14;7.63;;;2.17;;
72065;SDS011;59939;52.516;13.420;2023-04-25T15:19:18;13.13;;;2.27;;
72065;SDS011;59939;52.516;13.420;2023-04-25T15:22:22;12.07;;;1.80;;
72065;SDS011;59939;52.516;13.420;2023-04-25T15:25:26;3.57;;;1.80;;
72065;SDS011;59939;52.516;13.420;2023-04-25T15:28:31;3.13;;;1.50;;
72065;SDS011;59939;52.516;13.420;2023-04-25T15:31:51;3.13;;;0.97;;
72065;SDS011;59939;52.516;13.420;2023-04-25T15:34:58;2.37;;;1.53;;
72065;SDS011;59939;52.516;13.420;2023-04-25T15:38:02;6.10;;;1.43;;
72065;SDS011;59939;52.516;13.420;2023-04-25T15:41:08;3.90;;;1.37;;
72065;SDS011;59939;52.516;13.420;2023-04-25T15:44:15;4.93;;;1.30;;
72065;SDS011;59939;52.516;13.420;2023-04-25T15:47:18;3.70;;;1.63;;
72065;SDS011;59939;52.516;13.420;2023-04-25T15:50:22;7.33;;;1.70;;
72065;SDS011;59939;52.516;13.420;2023-04-25T15:53:26;5.67;;;1.40;;
72065;SDS011;59939;52.516;13.420;2023-04-25T15:56:30;4.00;;;1.40;;
72065;SDS011;59939;52.516;13.420;2023-04-25T15:59:34;9.03;;;1.73;;
72065;SDS011;59939;52.516;13.420;2023-04-25T16:02:52;6.20;;;1.40;;
72065;SDS011;59939;52.516;13.420;2023-04-25T16:05:56;6.13;;;1.50;;
72065;SDS011;59939;52.516;13.420;2023-04-25T16:09:02;6.17;;;1.60;;
72065;SDS011;59939;52.516;13.420;2023-04-25T16:12:07;6.10;;;1.57;;
72065;SDS011;59939;52.516;13.420;2023-04-25T16:15:13;4.73;;;1.40;;
72065;SDS011;59939;52.516;13.420;2023-04-25T16:18:18;7.10;;;1.93;;
72065;SDS011;59939;52.516;13.420;2023-04-25T16:21:22;5.17;;;1.80;;
72065;SDS011;59939;52.516;13.420;2023-04-25T16:24:25;5.83;;;1.30;;
72065;SDS011;59939;52.516;13.420;2023-04-25T16:27:33;6.93;;;1.77;;
72065;SDS011;59939;52.516;13.420;2023-04-25T16:30:43;5.90;;;1.90;;
72065;SDS011;59939;52.516;13.420;2023-04-25T16:33:55;1.20;;;1.00;;
72065;SDS011;59939;52.516;13.420;2023-04-25T16:37:02;2.03;;;0.90;;
72065;SDS011;59939;52.516;13.420;2023-04-25T16:40:08;5.70;;;1.93;;
72065;SDS011;59939;52.516;13.420;2023-04-25T16:43:26;3.10;;;1.30;;
72065;SDS011;59939;52.516;13.420;2023-04-25T16:46:30;7.03;;;1.33;;
72065;SDS011;59939;52.516;13.420;2023-04-25T16:49:43;5.60;;;1.30;;
72065;SDS011;59939;52.516;13.420;2023-04-25T16:52:49;4.80;;;1.13;;
72065;SDS011;59939;52.516;13.420;2023-04-25T16:55:53;5.30;;;1.50;;
72065;SDS011;59939;52.516;13.420;2023-04-25T16:58:57;11.40;;;1.60;;
72065;SDS011;59939;52.516;13.420;2023-04-25T17:02:01;4.23;;;1.10;;
72065;SDS011;59939;52.516;13.420;2023-04-25T17:05:05;4.33;;;1.20;;
72065;SDS011;59939;52.516;13.420;2023-04-25T17:08:09;3.40;;;1.40;;
72065;SDS011;59939;52.516;13.420;2023-04-25T17:11:13;4.63;;;1.20;;
72065;SDS011;59939;52.516;13.420;2023-04-25T17:14:17;5.80;;;1.53;;
72065;SDS011;59939;52.516;13.420;2023-04-25T17:17:20;4.77;;;1.50;;
72065;SDS011;59939;52.516;13.420;2023-04-25T17:20:24;10.67;;;2.07;;
72065;SDS011;59939;52.516;13.420;2023-04-25T17:23:28;6.50;;;1.67;;
72065;SDS011;59939;52.516;13.420;2023-04-25T17:26:37;6.93;;;2.40;;
72065;SDS011;59939;52.516;13.420;2023-04-25T17:29:41;5.57;;;1.57;;
72065;SDS011;59939;52.516;13.420;2023-04-25T17:32:44;8.50;;;1.83;;
72065;SDS011;59939;52.516;13.420;2023-04-25T17:35:51;4.97;;;1.20;;
72065;SDS011;59939;52.516;13.420;2023-04-25T17:38:55;7.10;;;1.93;;
72065;SDS011;59939;52.516;13.420;2023-04-25T17:42:01;5.73;;;1.70;;
72065;SDS011;59939;52.516;13.420;2023-04-25T17:45:07;1.70;;;1.00;;
72065;SDS011;59939;52.516;13.420;2023-04-25T17:48:11;6.37;;;1.50;;
72065;SDS011;59939;52.516;13.420;2023-04-25T17:51:16;4.20;;;1.43;;
72065;SDS011;59939;52.516;13.420;2023-04-25T17:54:20;3.80;;;1.27;;
72065;SDS011;59939;52.516;13.420;2023-04-25T17:57:25;3.80;;;1.80;;
72065;SDS011;59939;52.516;13.420;2023-04-25T18:00:28;5.27;;;1.47;;
72065;SDS011;59939;52.516;13.420;2023-04-25T18:03:36;2.00;;;1.00;;
72065;SDS011;59939;52.516;13.420;2023-04-25T18:06:42;4.63;;;1.30;;
72065;SDS011;59939;52.516;13.420;2023-04-25T18:09:47;5.67;;;1.83;;
72065;SDS011;59939;52.516;13.420;2023-04-25T18:12:50;5.83;;;1.13;;
72065;SDS011;59939;52.516;13.420;2023-04-25T18:15:54;7.90;;;2.00;;
72065;SDS011;59939;52.516;13.420;2023-04-25T18:19:04;8.13;;;1.77;;
72065;SDS011;59939;52.516;13.420;2023-04-25T18:22:16;2.03;;;1.20;;
72065;SDS011;59939;52.516;13.420;2023-04-25T18:25:20;5.43;;;1.60;;
72065;SDS011;59939;52.516;13.420;2023-04-25T18:28:24;5.60;;;1.60;;
72065;SDS011;59939;52.516;13.420;2023-04-25T18:31:27;4.03;;;1.57;;
72065;SDS011;59939;52.516;13.420;2023-04-25T18:34:33;4.00;;;1.80;;